createdAt,value
2022-08-11T00:02:27.299Z,21.09
2022-08-11T00:04:57.051Z,20.96
2022-08-11T00:07:26.737Z,20.94
2022-08-11T00:09:57.047Z,20.92
2022-08-11T00:12:25.367Z,20.81
2022-08-11T00:14:58.404Z,20.70
2022-08-11T00:17:29.836Z,20.70
2022-08-11T00:20:13.824Z,20.58
2022-08-11T00:22:46.633Z,20.61
2022-08-11T00:25:18.178Z,20.53
2022-08-11T00:27:47.982Z,20.42
2022-08-11T00:30:17.005Z,20.44
2022-08-11T00:32:47.208Z,20.48
2022-08-11T00:35:51.650Z,20.39
2022-08-11T00:38:08.403Z,20.40
2022-08-11T00:40:45.277Z,20.36
2022-08-11T00:43:24.867Z,20.29
2022-08-11T00:46:19.221Z,20.22
2022-08-11T00:48:58.991Z,20.19
2022-08-11T00:52:02.082Z,20.14
2022-08-11T00:55:10.105Z,20.03
2022-08-11T00:58:21.853Z,19.90
2022-08-11T01:01:10.343Z,19.80
2022-08-11T01:04:08.772Z,19.84
2022-08-11T01:06:55.228Z,19.83
2022-08-11T01:09:32.900Z,19.74
2022-08-11T01:12:22.909Z,19.68
2022-08-11T01:15:29.200Z,19.51
2022-08-11T01:18:46.176Z,19.51
2022-08-11T01:22:05.981Z,19.58
2022-08-11T01:25:09.374Z,19.61
2022-08-11T01:28:06.897Z,19.56
2022-08-11T01:31:15.929Z,19.56
2022-08-11T01:34:23.520Z,19.47
2022-08-11T01:37:07.828Z,19.41
2022-08-11T01:40:26.874Z,19.31
2022-08-11T01:43:49.670Z,19.23
2022-08-11T01:46:23.776Z,19.13
2022-08-11T01:50:06.778Z,19.02
2022-08-11T01:52:16.268Z,18.86
2022-08-11T01:54:49.193Z,18.77
2022-08-11T01:57:35.456Z,18.76
2022-08-11T02:00:09.956Z,18.74
2022-08-11T02:02:53.923Z,18.72
2022-08-11T02:05:30.303Z,18.68
2022-08-11T02:08:09.846Z,18.62
2022-08-11T02:11:04.694Z,18.65
2022-08-11T02:13:44.733Z,18.62
2022-08-11T02:16:20.819Z,18.65
2022-08-11T02:19:11.675Z,18.64
2022-08-11T02:22:04.233Z,18.55
2022-08-11T02:24:42.449Z,18.53
2022-08-11T02:27:17.314Z,18.52
2022-08-11T02:29:52.785Z,18.51
2022-08-11T02:32:42.458Z,18.45
2022-08-11T02:35:19.978Z,18.33
2022-08-11T02:37:59.228Z,18.25
2022-08-11T02:40:37.204Z,18.18
2022-08-11T02:43:19.953Z,18.22
2022-08-11T02:45:55.561Z,18.19
2022-08-11T02:48:52.317Z,18.16
2022-08-11T02:51:28.729Z,18.12
2022-08-11T02:54:08.396Z,18.12
2022-08-11T02:56:46.923Z,18.08
2022-08-11T02:59:43.766Z,17.95
2022-08-11T03:02:18.673Z,17.88
2022-08-11T03:04:56.452Z,17.81
2022-08-11T03:07:29.693Z,17.79
2022-08-11T03:10:10.965Z,17.80
2022-08-11T03:13:05.707Z,17.84
2022-08-11T03:16:01.176Z,17.84
2022-08-11T03:18:34.193Z,17.86
2022-08-11T03:21:10.241Z,17.86
2022-08-11T03:23:48.851Z,17.87
2022-08-11T03:26:24.213Z,17.89
2022-08-11T03:29:01.130Z,17.76
2022-08-11T03:31:33.443Z,17.66
2022-08-11T03:34:07.239Z,17.65
2022-08-11T03:37:16.746Z,17.59
2022-08-11T03:39:56.568Z,17.55
2022-08-11T03:42:33.360Z,17.55
2022-08-11T03:45:16.560Z,17.59
2022-08-11T03:48:05.793Z,17.57
2022-08-11T03:50:55.159Z,17.53
2022-08-11T03:53:41.900Z,17.57
2022-08-11T03:56:54.255Z,17.60
2022-08-11T04:00:02.774Z,17.58
2022-08-11T04:03:31.398Z,17.54
2022-08-11T04:06:36.729Z,17.55
2022-08-11T04:09:40.411Z,17.48
2022-08-11T04:12:36.107Z,17.39
2022-08-11T04:16:11.363Z,17.38
2022-08-11T04:19:19.022Z,17.38
2022-08-11T04:22:20.498Z,17.37
2022-08-11T04:25:51.153Z,17.43
2022-08-11T04:28:56.749Z,17.27
2022-08-11T04:31:52.042Z,17.26
2022-08-11T04:34:46.209Z,17.21
2022-08-11T04:37:51.370Z,17.09
2022-08-11T04:40:57.334Z,17.14
2022-08-11T04:44:02.864Z,17.19
2022-08-11T04:47:12.026Z,17.35
2022-08-11T04:50:17.261Z,17.41
2022-08-11T04:53:44.871Z,17.51
2022-08-11T04:56:41.482Z,17.63
2022-08-11T04:59:59.373Z,17.79
2022-08-11T05:03:07.065Z,17.90
2022-08-11T05:06:03.780Z,18.06
2022-08-11T05:08:54.371Z,18.09
2022-08-11T05:12:02.278Z,18.15
2022-08-11T05:14:53.444Z,18.27
2022-08-11T05:17:55.548Z,18.55
2022-08-11T05:20:44.289Z,18.60
2022-08-11T05:23:47.694Z,18.80
2022-08-11T05:26:46.698Z,18.98
2022-08-11T05:29:47.309Z,19.49
2022-08-11T05:32:36.043Z,19.53
2022-08-11T05:35:07.431Z,19.88
2022-08-11T05:37:57.236Z,19.97
2022-08-11T05:40:51.143Z,20.33
2022-08-11T05:44:19.891Z,20.32
2022-08-11T05:46:47.056Z,20.24
2022-08-11T05:49:32.909Z,20.63
2022-08-11T05:52:19.365Z,20.53
2022-08-11T05:55:07.595Z,20.63
2022-08-11T05:57:50.166Z,20.69
2022-08-11T06:00:20.457Z,20.47
2022-08-11T06:02:55.298Z,20.85
2022-08-11T06:05:37.176Z,21.25
2022-08-11T06:08:13.909Z,21.23
2022-08-11T06:10:43.767Z,21.31
2022-08-11T06:13:18.069Z,21.65
2022-08-11T06:15:47.661Z,21.75
2022-08-11T06:18:16.498Z,21.85
2022-08-11T06:20:48.801Z,22.70
2022-08-11T06:23:20.415Z,22.25
2022-08-11T06:25:49.442Z,22.89
2022-08-11T06:28:22.572Z,23.26
2022-08-11T06:30:51.445Z,22.65
2022-08-11T06:33:30.612Z,22.56
2022-08-11T06:36:05.269Z,23.36
2022-08-11T06:38:47.922Z,24.12
2022-08-11T06:41:33.160Z,23.94
2022-08-11T06:44:16.260Z,24.32
2022-08-11T06:46:47.656Z,24.41
2022-08-11T06:49:34.828Z,25.03
2022-08-11T06:52:05.191Z,24.89
2022-08-11T06:54:37.168Z,25.76
2022-08-11T06:57:31.920Z,26.22
2022-08-11T07:00:29.103Z,25.90
2022-08-11T07:03:01.824Z,26.38
2022-08-11T07:05:43.790Z,26.41
2022-08-11T07:08:56.989Z,26.53
2022-08-11T07:12:18.037Z,26.89
2022-08-11T07:15:10.085Z,27.05
2022-08-11T07:17:49.829Z,26.68
2022-08-11T07:20:37.281Z,26.37
2022-08-11T07:23:28.170Z,26.71
2022-08-11T07:26:18.071Z,27.24
2022-08-11T07:28:59.219Z,27.05
2022-08-11T07:31:34.107Z,27.52
2022-08-11T07:34:17.934Z,27.65
2022-08-11T07:36:49.169Z,28.36
2022-08-11T07:39:22.551Z,28.12
2022-08-11T07:41:54.267Z,28.11
2022-08-11T07:44:29.408Z,27.81
2022-08-11T07:47:18.833Z,27.93
2022-08-11T07:50:08.737Z,28.40
2022-08-11T07:52:40.498Z,28.55
2022-08-11T07:55:13.067Z,29.12
2022-08-11T07:58:16.678Z,29.00
2022-08-11T08:01:10.124Z,29.47
2022-08-11T08:03:58.172Z,29.77
2022-08-11T08:06:46.270Z,29.28
2022-08-11T08:09:35.497Z,30.20
2022-08-11T08:12:22.353Z,30.08
2022-08-11T08:15:08.440Z,29.95
2022-08-11T08:18:09.397Z,29.73
2022-08-11T08:20:49.726Z,29.55
2022-08-11T08:23:33.078Z,29.07
2022-08-11T08:26:01.846Z,30.15
2022-08-11T08:28:32.593Z,30.63
2022-08-11T08:31:00.893Z,31.07
2022-08-11T08:33:31.399Z,31.00
2022-08-11T08:36:12.710Z,29.98
2022-08-11T08:38:44.250Z,31.09
2022-08-11T08:41:16.611Z,32.21
2022-08-11T08:43:49.783Z,32.39
2022-08-11T08:46:21.755Z,33.20
2022-08-11T08:48:52.143Z,32.38
2022-08-11T08:51:58.772Z,33.43
2022-08-11T08:54:31.642Z,33.41
2022-08-11T08:57:05.230Z,32.49
2022-08-11T08:59:47.617Z,34.21
2022-08-11T09:02:20.546Z,35.24
2022-08-11T09:05:03.713Z,34.04
2022-08-11T09:07:39.454Z,34.13
2022-08-11T09:10:11.878Z,34.01
2022-08-11T09:12:42.562Z,34.67
2022-08-11T09:15:12.925Z,33.59
2022-08-11T09:17:45.049Z,33.47
2022-08-11T09:20:18.530Z,33.01
2022-08-11T09:26:15.896Z,35.83
2022-08-11T09:28:45.168Z,35.33
2022-08-11T09:31:14.354Z,36.13
2022-08-11T09:33:43.855Z,36.58
2022-08-11T09:36:31.596Z,36.46
2022-08-11T09:39:18.545Z,35.38
2022-08-11T09:42:00.302Z,36.50
2022-08-11T09:44:48.924Z,36.80
2022-08-11T09:47:24.245Z,35.85
2022-08-11T09:49:54.759Z,37.66
2022-08-11T09:52:24.357Z,37.10
2022-08-11T09:54:53.473Z,36.57
2022-08-11T09:57:41.525Z,35.23
2022-08-11T10:00:13.438Z,37.56
2022-08-11T10:02:44.633Z,37.52
2022-08-11T10:05:29.884Z,35.94
2022-08-11T10:07:58.178Z,37.00
2022-08-11T10:10:26.649Z,35.69
2022-08-11T10:13:01.593Z,35.24
2022-08-11T10:15:39.873Z,36.84
2022-08-11T10:18:49.107Z,35.92
2022-08-11T10:21:28.153Z,35.82
2022-08-11T10:24:14.632Z,36.29
2022-08-11T10:27:00.020Z,36.62
2022-08-11T10:29:51.194Z,35.24
2022-08-11T10:32:58.101Z,35.59
2022-08-11T10:35:29.185Z,35.86
2022-08-11T10:38:05.848Z,36.18
2022-08-11T10:40:39.931Z,35.52
2022-08-11T10:43:13.375Z,35.30
2022-08-11T10:46:05.098Z,34.98
2022-08-11T10:48:40.161Z,36.15
2022-08-11T10:51:13.862Z,36.08
2022-08-11T10:54:01.947Z,37.02
2022-08-11T10:56:49.399Z,38.19
2022-08-11T10:59:18.199Z,37.01
2022-08-11T11:01:47.965Z,36.63
2022-08-11T11:04:18.014Z,36.57
2022-08-11T11:06:54.536Z,37.34
2022-08-11T11:09:29.866Z,38.89
2022-08-11T11:12:19.180Z,37.42
2022-08-11T11:15:06.979Z,36.09
2022-08-11T11:17:56.970Z,35.01
2022-08-11T11:20:35.791Z,34.57
2022-08-11T11:23:10.347Z,35.15
2022-08-11T11:26:07.384Z,34.38
2022-08-11T11:29:08.043Z,35.69
2022-08-11T11:31:50.254Z,35.76
2022-08-11T11:34:37.889Z,37.02
2022-08-11T11:37:21.961Z,35.60
2022-08-11T11:39:50.143Z,35.25
2022-08-11T11:42:19.661Z,35.73
2022-08-11T11:44:48.861Z,36.45
2022-08-11T11:47:18.194Z,37.54
2022-08-11T11:49:49.602Z,37.35
2022-08-11T11:52:20.156Z,39.17
2022-08-11T11:54:50.193Z,39.13
2022-08-11T11:57:37.177Z,38.28
2022-08-11T12:00:33.363Z,36.54
2022-08-11T12:03:05.047Z,35.46
2022-08-11T12:05:36.194Z,35.68
2022-08-11T12:08:14.417Z,34.31
2022-08-11T12:10:46.477Z,34.98
2022-08-11T12:13:33.997Z,36.08
2022-08-11T12:16:32.392Z,36.96
2022-08-11T12:18:54.051Z,35.55
2022-08-11T12:21:25.183Z,36.03
2022-08-11T12:24:10.930Z,35.82
2022-08-11T12:27:14.782Z,36.36
2022-08-11T12:29:43.936Z,35.67
2022-08-11T12:32:13.029Z,35.15
2022-08-11T12:34:41.212Z,36.71
2022-08-11T12:37:13.757Z,35.97
2022-08-11T12:40:16.729Z,36.79
2022-08-11T12:43:22.133Z,36.17
2022-08-11T12:45:58.727Z,35.76
2022-08-11T12:49:00.436Z,35.16
2022-08-11T12:52:10.933Z,36.32
2022-08-11T12:54:51.430Z,36.83
2022-08-11T12:57:44.237Z,37.43
2022-08-11T13:00:30.459Z,35.70
2022-08-11T13:03:17.292Z,37.48
2022-08-11T13:05:49.535Z,35.06
2022-08-11T13:08:18.872Z,36.73
2022-08-11T13:11:08.864Z,36.70
2022-08-11T13:13:54.542Z,37.36
2022-08-11T13:16:27.538Z,36.43
2022-08-11T13:18:56.481Z,37.49
2022-08-11T13:21:24.894Z,37.39
2022-08-11T13:23:59.853Z,34.93
2022-08-11T13:26:47.305Z,36.81
2022-08-11T13:29:20.236Z,36.63
2022-08-11T13:31:49.221Z,36.71
2022-08-11T13:34:17.832Z,37.04
2022-08-11T13:36:46.571Z,36.89
2022-08-11T13:39:15.313Z,36.39
2022-08-11T13:41:47.727Z,36.12
2022-08-11T13:44:24.760Z,37.06
2022-08-11T13:46:55.200Z,38.15
2022-08-11T13:49:24.306Z,37.24
2022-08-11T13:51:53.570Z,37.24
2022-08-11T13:54:24.851Z,37.06
2022-08-11T13:56:57.097Z,36.25
2022-08-11T13:59:30.850Z,35.45
2022-08-11T14:02:22.126Z,34.67
2022-08-11T14:04:58.398Z,34.17
2022-08-11T14:07:35.843Z,35.60
2022-08-11T14:10:05.460Z,35.50
2022-08-11T14:12:54.537Z,35.97
2022-08-11T14:15:25.035Z,35.94
2022-08-11T14:17:57.312Z,35.91
2022-08-11T14:20:45.456Z,36.32
2022-08-11T14:23:15.483Z,36.29
2022-08-11T14:26:04.719Z,36.16
2022-08-11T14:28:41.703Z,36.46
2022-08-11T14:31:14.135Z,34.51
2022-08-11T14:34:00.884Z,34.38
2022-08-11T14:36:35.547Z,33.64
2022-08-11T14:39:08.007Z,34.09
2022-08-11T14:42:07.515Z,34.42
2022-08-11T14:45:03.123Z,33.56
2022-08-11T14:47:33.892Z,33.36
2022-08-11T14:50:11.422Z,33.43
2022-08-11T14:52:45.778Z,33.28
2022-08-11T14:55:33.057Z,33.39
2022-08-11T14:58:02.808Z,33.83
2022-08-11T15:00:34.144Z,34.07
2022-08-11T15:03:12.432Z,34.28
2022-08-11T15:05:56.107Z,33.69
2022-08-11T15:08:47.845Z,33.47
2022-08-11T15:11:36.739Z,32.87
2022-08-11T15:14:07.108Z,33.23
2022-08-11T15:16:56.008Z,33.09
2022-08-11T15:19:36.761Z,33.29
2022-08-11T15:22:28.296Z,33.05
2022-08-11T15:24:58.207Z,33.10
2022-08-11T15:27:48.516Z,33.20
2022-08-11T15:30:35.518Z,32.86
2022-08-11T15:33:25.451Z,33.14
2022-08-11T15:36:13.009Z,33.11
2022-08-11T15:38:45.416Z,32.54
2022-08-11T15:41:35.895Z,32.73
2022-08-11T15:44:51.220Z,32.63
2022-08-11T15:47:16.590Z,32.53
2022-08-11T15:50:10.953Z,32.56
2022-08-11T15:52:44.788Z,32.67
2022-08-11T15:55:12.797Z,32.40
2022-08-11T15:58:00.382Z,32.47
2022-08-11T16:00:47.215Z,32.36
2022-08-11T16:04:06.465Z,32.43
2022-08-11T16:06:24.038Z,32.51
2022-08-11T16:08:56.361Z,32.24
2022-08-11T16:11:25.805Z,31.93
2022-08-11T16:14:12.058Z,32.36
2022-08-11T16:16:41.153Z,32.22
2022-08-11T16:19:10.888Z,32.43
2022-08-11T16:21:43.063Z,31.86
2022-08-11T16:27:03.404Z,31.83
2022-08-11T16:27:13.154Z,31.85
2022-08-11T16:29:45.700Z,32.18
2022-08-11T16:32:21.775Z,31.84
2022-08-11T16:35:14.314Z,32.13
2022-08-11T16:38:02.908Z,31.98
2022-08-11T16:40:33.547Z,31.75
2022-08-11T16:43:22.277Z,31.85
2022-08-11T16:46:08.172Z,31.79
2022-08-11T16:48:41.198Z,31.80
2022-08-11T16:51:12.198Z,31.83
2022-08-11T16:54:00.027Z,32.07
2022-08-11T16:56:36.389Z,32.16
2022-08-11T16:59:15.225Z,32.04
2022-08-11T17:01:45.847Z,31.93
2022-08-11T17:04:39.622Z,31.79
2022-08-11T17:07:41.623Z,31.87
2022-08-11T17:10:51.328Z,31.74
2022-08-11T17:13:27.180Z,31.68
2022-08-11T17:16:08.797Z,31.65
2022-08-11T17:18:44.123Z,31.69
2022-08-11T17:21:21.601Z,31.72
2022-08-11T17:23:54.953Z,31.74
2022-08-11T17:26:49.211Z,31.45
2022-08-11T17:29:19.674Z,31.48
2022-08-11T17:32:06.824Z,31.57
2022-08-11T17:34:52.934Z,31.57
2022-08-11T17:37:22.773Z,31.43
2022-08-11T17:39:52.857Z,31.25
2022-08-11T17:42:42.029Z,31.20
2022-08-11T17:45:29.836Z,31.18
2022-08-11T17:48:15.942Z,31.10
2022-08-11T17:50:44.712Z,31.07
2022-08-11T17:53:32.017Z,30.96
2022-08-11T17:56:29.989Z,31.03
2022-08-11T17:59:19.305Z,31.03
2022-08-11T18:01:49.811Z,30.92
2022-08-11T18:04:22.219Z,30.84
2022-08-11T18:06:51.660Z,30.84
2022-08-11T18:09:39.331Z,30.82
2022-08-11T18:18:59.731Z,30.68
2022-08-11T18:22:03.518Z,30.65
2022-08-11T18:24:58.047Z,30.52
2022-08-11T18:27:46.461Z,30.38
2022-08-11T18:30:32.146Z,30.22
2022-08-11T18:36:31.207Z,30.11
2022-08-11T18:39:18.310Z,30.06
2022-08-11T18:42:06.462Z,29.96
2022-08-11T18:44:55.114Z,29.92
2022-08-11T18:47:42.894Z,29.95
2022-08-11T18:50:38.476Z,29.90
2022-08-11T18:53:29.168Z,29.70
2022-08-11T18:56:16.809Z,29.40
2022-08-11T18:59:05.770Z,29.29
2022-08-11T19:01:53.551Z,29.15
2022-08-11T19:04:40.314Z,29.10
2022-08-11T19:07:27.755Z,28.99
2022-08-11T19:10:15.694Z,28.84
2022-08-11T19:13:03.681Z,28.81
2022-08-11T19:15:50.382Z,28.80
2022-08-11T19:18:39.298Z,28.73
2022-08-11T19:21:26.891Z,28.71
2022-08-11T19:24:17.298Z,28.41
2022-08-11T19:27:04.635Z,28.33
2022-08-11T19:30:07.991Z,28.26
2022-08-11T19:33:00.151Z,28.26
2022-08-11T19:35:47.295Z,28.11
2022-08-11T19:38:33.568Z,28.06
2022-08-11T19:41:56.866Z,28.01
2022-08-11T19:44:27.057Z,28.00
2022-08-11T19:47:13.461Z,27.96
2022-08-11T19:50:02.219Z,27.93
2022-08-11T19:52:49.373Z,27.83
2022-08-11T19:55:36.094Z,27.83
2022-08-11T19:58:23.233Z,27.75
2022-08-11T20:01:10.389Z,27.68
2022-08-11T20:03:55.590Z,27.57
2022-08-11T20:06:42.600Z,27.51
2022-08-11T20:10:05.181Z,27.41
2022-08-11T20:12:36.473Z,27.30
2022-08-11T20:15:24.439Z,27.16
2022-08-11T20:18:11.967Z,26.88
2022-08-11T20:20:58.595Z,26.70
2022-08-11T20:23:45.226Z,26.79
2022-08-11T20:26:31.706Z,26.72
2022-08-11T20:29:19.220Z,26.71
2022-08-11T20:32:06.598Z,26.69
2022-08-11T20:34:58.206Z,26.72
2022-08-11T20:37:50.212Z,26.61
2022-08-11T20:40:39.904Z,26.48
2022-08-11T20:44:07.019Z,26.33
2022-08-11T20:46:38.746Z,26.26
2022-08-11T20:49:40.921Z,26.31
2022-08-11T20:52:37.646Z,26.31
2022-08-11T20:55:26.052Z,26.12
2022-08-11T20:58:47.003Z,26.16
2022-08-11T21:01:41.220Z,25.91
2022-08-11T21:04:27.936Z,25.85
2022-08-11T21:07:18.586Z,25.76
2022-08-11T21:10:23.243Z,25.78
2022-08-11T21:13:18.018Z,25.74
2022-08-11T21:16:25.454Z,25.69
2022-08-11T21:19:19.133Z,25.63
2022-08-11T21:22:28.020Z,25.53
2022-08-11T21:25:17.676Z,25.38
2022-08-11T21:28:07.822Z,25.35
2022-08-11T21:30:57.443Z,25.25
2022-08-11T21:33:46.150Z,25.16
2022-08-11T21:36:33.311Z,25.07
2022-08-11T21:39:20.741Z,25.04
2022-08-11T21:42:13.105Z,25.05
2022-08-11T21:44:59.695Z,24.88
2022-08-11T21:47:45.805Z,24.85
2022-08-11T21:50:31.649Z,24.85
2022-08-11T21:53:18.892Z,24.74
2022-08-11T21:56:05.093Z,24.79
2022-08-11T21:58:53.207Z,24.68
2022-08-11T22:01:39.368Z,24.57
2022-08-11T22:04:25.497Z,24.60
2022-08-11T22:07:11.888Z,24.44
2022-08-11T22:09:57.256Z,24.26
2022-08-11T22:12:45.129Z,24.18
2022-08-11T22:15:32.510Z,24.19
2022-08-11T22:18:20.263Z,24.00
2022-08-11T22:21:06.517Z,23.90
2022-08-11T22:23:56.543Z,23.82
2022-08-11T22:26:42.726Z,23.75
2022-08-11T22:29:50.793Z,23.64
2022-08-11T22:32:39.995Z,23.58
2022-08-11T22:35:29.285Z,23.61
2022-08-11T22:38:16.193Z,23.50
2022-08-11T22:41:01.400Z,23.43
2022-08-11T22:43:46.579Z,23.30
2022-08-11T22:46:34.327Z,23.28
2022-08-11T22:49:22.045Z,23.15
2022-08-11T22:52:08.954Z,23.17
2022-08-11T22:54:55.884Z,23.01
2022-08-11T22:58:00.969Z,22.98
2022-08-11T23:00:46.976Z,22.91
2022-08-11T23:03:37.782Z,22.74
2022-08-11T23:06:26.244Z,22.86
2022-08-11T23:09:12.937Z,22.60
2022-08-11T23:12:06.782Z,22.46
2022-08-11T23:14:57.101Z,22.51
2022-08-11T23:17:43.966Z,22.35
2022-08-11T23:20:42.889Z,22.35
2022-08-11T23:23:38.037Z,22.34
2022-08-11T23:26:24.533Z,22.40
2022-08-11T23:29:12.069Z,22.37
2022-08-11T23:31:57.877Z,22.38
2022-08-11T23:35:04.702Z,22.37
2022-08-11T23:37:54.877Z,22.22
2022-08-11T23:40:42.146Z,22.31
2022-08-11T23:43:37.401Z,22.28
2022-08-11T23:46:24.389Z,22.22
2022-08-11T23:49:15.144Z,22.16
2022-08-11T23:52:01.155Z,22.06
2022-08-11T23:54:47.937Z,22.08
2022-08-11T23:57:35.304Z,22.02
